createdAt,value
2023-02-19T00:02:31.927Z,99201.81
2023-02-19T00:07:56.530Z,99193.76
2023-02-19T00:13:21.103Z,99194.95
2023-02-19T00:18:46.077Z,99201.51
2023-02-19T00:24:48.372Z,99198.83
2023-02-19T00:30:13.573Z,99203.98
2023-02-19T00:35:38.525Z,99195.52
2023-02-19T00:41:19.407Z,99190.90
2023-02-19T00:46:47.358Z,99187.55
2023-02-19T00:52:11.610Z,99184.60
2023-02-19T00:57:35.940Z,99176.67
2023-02-19T01:03:00.871Z,99171.27
2023-02-19T01:08:27.756Z,99164.14
2023-02-19T01:13:52.224Z,99161.02
2023-02-19T01:19:16.889Z,99158.73
2023-02-19T01:24:40.885Z,99149.04
2023-02-19T01:30:06.593Z,99139.40
2023-02-19T01:35:30.862Z,99133.80
2023-02-19T01:41:00.614Z,99123.63
2023-02-19T01:46:33.696Z,99118.67
2023-02-19T01:52:11.896Z,99119.64
2023-02-19T01:57:43.959Z,99113.23
2023-02-19T02:03:08.500Z,99103.88
2023-02-19T02:08:54.474Z,99097.83
2023-02-19T02:14:24.473Z,99101.67
2023-02-19T02:20:17.485Z,99095.73
2023-02-19T02:25:56.506Z,99079.85
2023-02-19T02:31:48.965Z,99080.90
2023-02-19T02:37:15.023Z,99065.34
2023-02-19T02:42:43.775Z,99041.14
2023-02-19T02:48:21.196Z,99027.54
2023-02-19T02:54:12.694Z,99029.95
2023-02-19T02:59:40.103Z,99026.89
2023-02-19T03:05:32.579Z,99027.71
2023-02-19T03:11:21.058Z,99019.38
2023-02-19T03:17:04.495Z,99022.00
2023-02-19T03:22:33.414Z,99032.10
2023-02-19T03:28:02.007Z,99026.57
2023-02-19T03:33:29.827Z,99020.20
2023-02-19T03:39:07.453Z,99011.22
2023-02-19T03:45:08.341Z,99001.87
2023-02-19T03:50:49.229Z,98996.59
2023-02-19T03:56:26.099Z,98993.27
2023-02-19T04:02:01.462Z,98998.75
2023-02-19T04:07:29.005Z,98998.09
2023-02-19T04:13:00.922Z,98996.42
2023-02-19T04:18:31.518Z,98994.45
2023-02-19T04:24:00.429Z,98987.61
2023-02-19T04:29:26.689Z,98984.55
2023-02-19T04:35:04.018Z,98985.17
2023-02-19T04:40:28.754Z,98978.92
2023-02-19T04:45:52.509Z,98983.95
2023-02-19T04:51:16.772Z,98974.66
2023-02-19T04:56:41.654Z,98969.25
2023-02-19T05:02:06.000Z,98957.58
2023-02-19T05:07:30.754Z,98949.80
2023-02-19T05:12:57.899Z,98944.27
2023-02-19T05:18:22.203Z,98944.96
2023-02-19T05:23:46.724Z,98939.59
2023-02-19T05:29:12.414Z,98940.71
2023-02-19T05:34:36.225Z,98934.91
2023-02-19T05:40:00.546Z,98941.05
2023-02-19T05:45:27.025Z,98939.79
2023-02-19T05:50:50.940Z,98948.27
2023-02-19T05:56:36.399Z,98947.84
2023-02-19T06:02:01.897Z,98952.02
2023-02-19T06:07:26.036Z,98940.86
2023-02-19T06:12:53.901Z,98948.41
2023-02-19T06:18:18.777Z,98952.68
2023-02-19T06:23:43.404Z,98969.38
2023-02-19T06:29:08.689Z,98975.60
2023-02-19T06:34:33.963Z,98978.20
2023-02-19T06:39:58.042Z,98988.84
2023-02-19T06:45:22.162Z,98998.89
2023-02-19T06:50:47.316Z,99009.67
2023-02-19T06:56:30.189Z,99015.70
2023-02-19T07:01:54.121Z,99025.49
2023-02-19T07:07:36.445Z,99042.69
2023-02-19T07:13:18.043Z,99058.48
2023-02-19T07:19:01.164Z,99078.73
2023-02-19T07:24:43.616Z,99102.64
2023-02-19T07:30:26.039Z,99116.58
2023-02-19T07:35:52.085Z,99128.23
2023-02-19T07:41:17.276Z,99141.01
2023-02-19T07:46:43.476Z,99153.55
2023-02-19T07:52:08.009Z,99163.11
2023-02-19T07:57:32.818Z,99173.95
2023-02-19T08:03:01.387Z,99188.55
2023-02-19T08:08:25.544Z,99200.09
2023-02-19T08:13:51.240Z,99203.26
2023-02-19T08:19:16.589Z,99205.48
2023-02-19T08:24:43.383Z,99215.30
2023-02-19T08:30:09.653Z,99223.23
2023-02-19T08:35:37.563Z,99234.05
2023-02-19T08:41:12.079Z,99250.27
2023-02-19T08:46:47.380Z,99263.52
2023-02-19T08:52:11.774Z,99275.39
2023-02-19T08:57:38.661Z,99284.83
2023-02-19T09:03:04.811Z,99292.33
2023-02-19T09:08:28.722Z,99298.09
2023-02-19T09:13:56.784Z,99312.67
2023-02-19T09:19:22.184Z,99321.52
2023-02-19T09:24:46.032Z,99333.80
2023-02-19T09:30:11.095Z,99353.71
2023-02-19T09:35:41.068Z,99359.80
2023-02-19T09:41:20.688Z,99367.17
2023-02-19T09:46:52.036Z,99376.14
2023-02-19T09:52:29.665Z,99387.98
2023-02-19T09:57:54.618Z,99401.08
2023-02-19T10:03:31.623Z,99407.45
2023-02-19T10:09:12.239Z,99418.02
2023-02-19T10:14:45.253Z,99424.44
2023-02-19T10:20:19.002Z,99437.15
2023-02-19T10:25:57.572Z,99449.94
2023-02-19T10:31:24.992Z,99449.75
2023-02-19T10:36:53.625Z,99452.55
2023-02-19T10:42:23.679Z,99457.15
2023-02-19T10:47:48.757Z,99464.69
2023-02-19T10:53:25.660Z,99475.69
2023-02-19T10:58:51.344Z,99480.95
2023-02-19T11:04:18.252Z,99489.14
2023-02-19T11:09:46.916Z,99490.23
2023-02-19T11:15:42.360Z,99498.58
2023-02-19T11:21:08.418Z,99490.09
2023-02-19T11:26:38.608Z,99496.55
2023-02-19T11:32:21.398Z,99509.80
2023-02-19T11:37:57.911Z,99521.83
2023-02-19T11:43:59.529Z,99522.89
2023-02-19T11:49:45.697Z,99517.08
2023-02-19T11:55:46.796Z,99521.85
2023-02-19T12:01:36.610Z,99523.31
2023-02-19T12:07:24.469Z,99536.14
2023-02-19T12:12:57.325Z,99536.17
2023-02-19T12:18:25.292Z,99541.65
2023-02-19T12:24:20.358Z,99547.45
2023-02-19T12:30:00.328Z,99551.66
2023-02-19T12:35:44.630Z,99558.79
2023-02-19T12:41:30.763Z,99552.33
2023-02-19T12:47:01.581Z,99559.36
2023-02-19T12:52:35.109Z,99573.39
2023-02-19T12:58:04.342Z,99583.78
2023-02-19T13:03:54.487Z,99577.05
2023-02-19T13:09:28.577Z,99573.27
2023-02-19T13:14:56.364Z,99578.45
2023-02-19T13:20:41.765Z,99590.44
2023-02-19T13:27:21.939Z,99588.42
2023-02-19T13:33:28.320Z,99599.45
2023-02-19T13:45:04.863Z,99603.05
2023-02-19T13:50:32.356Z,99599.41
2023-02-19T13:55:56.449Z,99603.54
2023-02-19T14:01:49.861Z,99603.15
2023-02-19T14:07:14.527Z,99620.04
2023-02-19T14:12:39.002Z,99620.73
2023-02-19T14:18:04.415Z,99627.26
2023-02-19T14:23:29.939Z,99633.23
2023-02-19T14:28:54.986Z,99641.77
2023-02-19T14:34:24.057Z,99653.91
2023-02-19T14:39:52.406Z,99660.67
2023-02-19T14:45:18.580Z,99663.16
2023-02-19T14:50:47.375Z,99671.89
2023-02-19T14:56:24.030Z,99675.53
2023-02-19T15:01:55.762Z,99684.92
2023-02-19T15:07:24.323Z,99690.37
2023-02-19T15:12:59.435Z,99694.86
2023-02-19T15:18:28.355Z,99699.52
2023-02-19T15:23:59.430Z,99714.67
2023-02-19T15:29:27.773Z,99719.88
2023-02-19T15:35:03.316Z,99726.63
2023-02-19T15:40:32.042Z,99733.36
2023-02-19T15:46:12.807Z,99742.23
2023-02-19T15:51:47.965Z,99753.08
2023-02-19T15:57:19.864Z,99757.73
2023-02-19T16:02:43.762Z,99760.27
2023-02-19T16:08:17.879Z,99772.15
2023-02-19T16:13:42.208Z,99778.70
2023-02-19T16:19:07.356Z,99789.13
2023-02-19T16:24:37.474Z,99799.42
2023-02-19T16:30:25.870Z,99794.27
2023-02-19T16:35:52.702Z,99799.70
2023-02-19T16:41:17.193Z,99816.55
2023-02-19T16:46:41.572Z,99840.23
2023-02-19T16:52:06.565Z,99864.52
2023-02-19T16:57:31.724Z,99864.21
2023-02-19T17:03:00.116Z,99855.27
2023-02-19T17:08:37.468Z,99856.15
2023-02-19T17:14:01.364Z,99864.75
2023-02-19T17:19:26.287Z,99869.23
2023-02-19T17:24:51.214Z,99883.84
2023-02-19T17:30:24.141Z,99897.44
2023-02-19T17:35:48.352Z,99921.44
2023-02-19T17:41:12.389Z,99926.50
2023-02-19T17:46:37.062Z,99917.73
2023-02-19T17:52:01.250Z,99925.54
2023-02-19T17:57:27.323Z,99925.22
2023-02-19T18:02:52.276Z,99935.73
2023-02-19T18:08:18.403Z,99935.59
2023-02-19T18:13:42.602Z,99939.91
2023-02-19T18:19:08.018Z,99950.60
2023-02-19T18:24:32.522Z,99952.31
2023-02-19T18:29:57.605Z,99965.98
2023-02-19T18:35:22.094Z,99975.85
2023-02-19T18:40:47.519Z,99985.73
2023-02-19T18:46:11.902Z,99979.38
2023-02-19T18:51:37.378Z,99987.36
2023-02-19T18:57:04.280Z,99992.36
2023-02-19T19:02:42.683Z,99990.95
2023-02-19T19:08:13.559Z,99996.01
2023-02-19T19:13:38.397Z,99998.17
2023-02-19T19:19:03.140Z,100000.84
2023-02-19T19:24:28.728Z,100003.20
2023-02-19T19:29:53.987Z,100014.18
2023-02-19T19:35:20.846Z,100022.22
2023-02-19T19:40:45.992Z,100023.83
2023-02-19T19:46:11.022Z,100015.51
2023-02-19T19:51:35.523Z,100015.77
2023-02-19T19:57:00.642Z,100023.48
2023-02-19T20:02:26.230Z,100030.26
2023-02-19T20:07:50.959Z,100039.52
2023-02-19T20:13:19.616Z,100033.88
2023-02-19T20:18:43.663Z,100029.26
2023-02-19T20:24:07.872Z,100030.11
2023-02-19T20:30:09.721Z,100030.98
2023-02-19T20:36:10.794Z,100033.34
2023-02-19T20:42:10.278Z,100047.02
2023-02-19T20:48:09.182Z,100061.27
2023-02-19T20:54:08.366Z,100078.95
2023-02-19T20:59:35.742Z,100085.76
2023-02-19T21:05:01.140Z,100095.04
2023-02-19T21:10:26.647Z,100093.61
2023-02-19T21:15:54.542Z,100094.66
2023-02-19T21:21:20.436Z,100096.48
2023-02-19T21:26:45.374Z,100101.45
2023-02-19T21:32:10.667Z,100104.73
2023-02-19T21:37:35.064Z,100111.61
2023-02-19T21:42:59.415Z,100115.45
2023-02-19T21:48:24.434Z,100115.39
2023-02-19T21:53:48.701Z,100124.39
2023-02-19T21:59:12.990Z,100127.58
2023-02-19T22:04:37.253Z,100133.21
2023-02-19T22:10:01.409Z,100136.90
2023-02-19T22:15:26.538Z,100133.09
2023-02-19T22:20:51.101Z,100115.17
2023-02-19T22:26:20.238Z,100108.49
2023-02-19T22:31:45.583Z,100108.73
2023-02-19T22:37:10.912Z,100113.85
2023-02-19T22:42:36.101Z,100116.41
2023-02-19T22:48:00.585Z,100118.52
2023-02-19T22:53:25.606Z,100121.13
2023-02-19T22:58:50.097Z,100110.05
2023-02-19T23:04:14.992Z,100108.71
2023-02-19T23:09:39.663Z,100109.31
2023-02-19T23:15:03.902Z,100111.08
2023-02-19T23:20:27.938Z,100103.73
2023-02-19T23:25:52.711Z,100089.73
2023-02-19T23:31:17.348Z,100069.86
2023-02-19T23:36:46.766Z,100065.72
2023-02-19T23:42:17.056Z,100059.90
2023-02-19T23:47:41.548Z,100047.95
2023-02-19T23:53:06.264Z,100046.27
2023-02-19T23:58:30.945Z,100029.92
